Data for 05/24/2005

Time Sea-Level Adjusted Pressure Absolute Pressure Temperature Relative Humidity Dew Point   
(mb) (inHg) (mb) (inHg) (C) (F) (%) (C) (F)
00:05 1019 30.09 848 25.04 9.5 49.1 48 -0.9 30.4
00:10 1019 30.09 848 25.04 9.3 48.8 45 -1.8 28.7
00:15 1019 30.09 848 25.04 9.3 48.7 48 -1.1 30.1
00:20 1019 30.09 848 25.04 9.3 48.8 49 -0.8 30.6
00:25 1019 30.09 848 25.04 9.4 48.9 51 -0.3 31.5
00:30 1019 30.09 848 25.04 9.3 48.7 54 0.5 32.9
00:35 1019 30.09 848 25.04 9.1 48.4 52 -0.2 31.6
00:40 1019 30.09 849 25.07 9.3 48.7 52 0.1 32.1
00:45 1019 30.09 849 25.07 9.2 48.6 55 0.6 33.1
00:50 1019 30.09 849 25.07 9 48.2 55 0.5 33
00:55 1019 30.09 849 25.07 8.9 48.1 57 0.8 33.4
01:00 1019 30.09 849 25.07 8.8 47.9 58 1.1 33.9
01:05 1019 30.09 849 25.07 8.8 47.9 58 1 33.7
01:10 1019 30.09 849 25.07 8.7 47.7 58 1.1 33.9
01:15 1019 30.09 849 25.07 8.5 47.4 59 1 33.8
01:20 1019 30.09 849 25.07 8.6 47.4 58 0.9 33.6
01:25 1019 30.09 849 25.07 8.5 47.4 57 0.5 33
01:30 1019 30.09 849 25.07 8.6 47.5 58 0.8 33.4
01:35 1019 30.09 849 25.07 8.7 47.7 57 0.6 33.1
01:40 1019 30.09 849 25.07 8.8 47.8 57 0.8 33.4
01:45 1019 30.09 849 25.07 8.7 47.6 58 0.9 33.6
01:50 1019 30.09 849 25.07 8.7 47.6 57 0.7 33.2
01:55 1019 30.09 849 25.07 8.6 47.5 58 0.7 33.3
02:00 1019 30.09 849 25.07 8.6 47.4 58 0.9 33.5
02:05 1019 30.09 849 25.07 8.5 47.3 57 0.4 32.7
02:10 1019 30.09 849 25.07 8.6 47.5 55 0.2 32.3
02:15 1019 30.09 849 25.07 8.8 47.8 56 0.5 32.8
02:20 1019 30.09 849 25.07 8.7 47.6 57 0.5 32.9
02:25 1019 30.09 849 25.07 8.5 47.3 57 0.5 33
02:30 1019 30.09 849 25.07 8.6 47.4 57 0.6 33.1
02:35 1019 30.09 849 25.07 8.5 47.3 57 0.5 32.9
02:40 1020 30.12 849 25.07 8.5 47.3 56 0.3 32.5
02:45 1019 30.09 849 25.07 8.6 47.5 54 -0.3 31.5
02:50 1019 30.09 849 25.07 8.5 47.4 55 0.1 32.2
02:55 1019 30.09 849 25.07 8.2 46.8 58 0.4 32.7
03:00 1020 30.12 849 25.07 8.2 46.7 58 0.3 32.6
03:05 1020 30.12 849 25.07 8.1 46.5 57 0.2 32.3
03:10 1019 30.09 849 25.07 8.1 46.5 58 0.3 32.5
03:15 1019 30.09 849 25.07 8 46.4 58 0.2 32.3
03:20 1019 30.09 849 25.07 7.9 46.3 58 0.1 32.2
03:25 1019 30.09 849 25.07 7.9 46.1 60 0.7 33.2
03:30 1019 30.09 849 25.07 7.8 46 63 1.1 34
03:35 1020 30.12 849 25.07 7.8 46 63 1.2 34.1
03:40 1020 30.12 849 25.07 7.7 45.9 63 1.1 34
03:45 1020 30.12 849 25.07 7.7 45.8 62 0.8 33.5
03:50 1020 30.12 849 25.07 7.7 45.8 62 0.8 33.5
03:55 1020 30.12 849 25.07 7.7 45.8 64 1.3 34.3
04:00 1020 30.12 849 25.07 7.7 45.8 64 1.4 34.5
04:05 1020 30.12 849 25.07 7.7 45.8 65 1.5 34.8
04:10 1020 30.12 849 25.07 7.5 45.6 64 1.1 34.1
04:15 1020 30.12 849 25.07 7.5 45.4 64 1.1 34.1
04:20 1020 30.12 849 25.07 7.4 45.3 61 0.4 32.7
04:25 1020 30.12 849 25.07 7.4 45.4 62 0.8 33.4
04:30 1020 30.12 849 25.07 7.4 45.3 61 0.3 32.6
04:35 1020 30.12 849 25.07 7.6 45.7 56 -0.5 31.1
04:40 1020 30.12 849 25.07 7.7 45.9 57 -0.3 31.5
04:45 1020 30.12 849 25.07 7.7 45.9 58 0 32.1
04:50 1020 30.12 849 25.07 7.5 45.6 62 0.8 33.5
04:55 1020 30.12 849 25.07 7.1 44.8 65 0.9 33.7
05:00 1020 30.12 849 25.07 7 44.5 66 1.2 34.1
05:05 1020 30.12 849 25.07 6.8 44.2 67 1.1 34
05:10 1020 30.12 849 25.07 6.7 44.1 67 1 33.8
05:15 1020 30.12 849 25.07 7 44.6 65 0.8 33.4
05:20 1020 30.12 849 25.07 7.1 44.7 65 1 33.9
05:25 1020 30.12 849 25.07 6.6 43.9 68 1.2 34.1
05:30 1020 30.12 849 25.07 6.5 43.6 65 0.4 32.7
05:35 1020 30.12 849 25.07 6.6 43.8 66 0.7 33.2
05:40 1020 30.12 849 25.07 6.2 43.2 65 0.2 32.3
05:45 1020 30.12 849 25.07 6.5 43.6 57 -1.5 29.2
05:50 1020 30.12 849 25.07 7.1 44.8 62 0.3 32.5
05:55 1020 30.12 849 25.07 6.8 44.2 64 0.4 32.7
06:00 1020 30.12 849 25.07 6.7 44 65 0.5 32.9
06:05 1020 30.12 849 25.07 6.5 43.8 64 0.2 32.4
06:10 1020 30.12 849 25.07 6.4 43.6 65 0.4 32.7
06:15 1020 30.12 849 25.07 6 42.9 66 0.3 32.5
06:20 1020 30.12 849 25.07 5.9 42.7 65 -0.2 31.7
06:25 1020 30.12 849 25.07 6 42.8 65 -0 31.9
06:30 1020 30.12 849 25.07 6 42.7 65 -0 31.9
06:35 1020 30.12 849 25.07 5.7 42.2 67 0.1 32.2
06:40 1020 30.12 849 25.07 5.5 42 68 0.1 32.3
06:45 1020 30.12 849 25.07 5.5 41.9 68 0.1 32.2
06:50 1020 30.12 849 25.07 5.7 42.2 67 0.1 32.1
06:55 1020 30.12 849 25.07 5.7 42.3 66 -0.2 31.7
07:00 1020 30.12 849 25.07 5.8 42.5 65 -0.1 31.8
07:05 1020 30.12 849 25.07 6 42.8 65 -0.1 31.8
07:10 1020 30.12 849 25.07 6.2 43.1 64 -0.1 31.8
07:15 1020 30.12 849 25.07 6.3 43.3 64 0 32.1
07:20 1020 30.12 849 25.07 6.4 43.6 64 0.2 32.4
07:25 1020 30.12 849 25.07 6.6 43.9 63 0.2 32.3
07:30 1020 30.12 849 25.07 6.7 44 63 0.2 32.3
07:35 1020 30.12 849 25.07 6.8 44.3 63 0.3 32.6
07:40 1020 30.12 849 25.07 7.1 44.8 63 0.4 32.8
07:45 1020 30.12 849 25.07 7.5 45.6 60 0.4 32.7
07:50 1020 30.12 849 25.07 7.9 46.1 61 0.8 33.5
07:55 1020 30.12 849 25.07 7.9 46.3 60 0.7 33.3
08:00 1020 30.12 849 25.07 7.9 46.2 57 -0 32
08:05 1020 30.12 849 25.07 8.1 46.6 57 0.1 32.2
08:10 1020 30.12 849 25.07 8.3 47 57 0.4 32.7
08:15 1020 30.12 849 25.07 8.2 46.8 54 -0.5 31.2
08:20 1020 30.12 849 25.07 8.1 46.6 56 -0.1 31.9
08:25 1020 30.12 849 25.07 8.3 47 55 -0.1 31.9
08:30 1020 30.12 849 25.07 8.6 47.5 54 -0.2 31.6
08:35 1020 30.12 849 25.07 9.3 48.8 49 -0.7 30.7
08:40 1020 30.12 849 25.07 9.6 49.4 50 -0.2 31.7
08:45 1020 30.12 849 25.07 9.9 49.8 48 -0.5 31.1
08:50 1020 30.12 849 25.07 10.1 50.2 45 -1.3 29.6
08:55 1020 30.12 849 25.07 10.2 50.3 45 -1.1 29.9
09:00 1020 30.12 849 25.07 9.9 49.8 47 -0.8 30.6
09:05 1020 30.12 849 25.07 10 50 48 -0.4 31.2
09:10 1020 30.12 849 25.07 10.2 50.4 50 0.4 32.8
09:15 1020 30.12 849 25.07 10.8 51.4 49 0.6 33.1
09:20 1020 30.12 849 25.07 11 51.7 48 0.4 32.7
09:25 1020 30.12 849 25.07 11.2 52.2 46 0.1 32.2
09:30 1020 30.12 849 25.07 11.4 52.6 48 0.9 33.7
09:35 1020 30.12 849 25.07 11.3 52.3 47 0.3 32.5
09:40 1020 30.12 850 25.1 11.3 52.4 47 0.5 32.9
09:45 1020 30.12 849 25.07 11.4 52.4 45 -0 32
09:50 1020 30.12 849 25.07 11.7 53 46 0.5 33
09:55 1020 30.12 849 25.07 12 53.6 45 0.6 33
10:00 1020 30.12 849 25.07 12.5 54.5 47 1.5 34.7
10:05 1020 30.12 849 25.07 12.7 54.9 43 0.7 33.2
10:10 1020 30.12 849 25.07 13.1 55.5 41 0.3 32.5
10:15 1020 30.12 849 25.07 13.6 56.4 35 -1.4 29.4
10:20 1020 30.12 849 25.07 13.3 56 35 -1.8 28.8
10:25 1020 30.12 849 25.07 13.4 56.1 35 -1.7 29
10:30 1020 30.12 849 25.07 13.4 56.2 36 -1.4 29.5
10:35 1020 30.12 849 25.07 12.9 55.1 37 -1.3 29.6
10:40 1020 30.12 849 25.07 12 53.5 40 -1.1 29.9
10:45 1020 30.12 849 25.07 12 53.6 39 -1.6 29.1
10:50 1020 30.12 849 25.07 12.8 55 35 -2.2 28.1
10:55 1020 30.12 849 25.07 13.5 56.3 33 -2.3 27.9
11:00 1020 30.12 849 25.07 13.1 55.5 34 -2.2 28
11:05 1020 30.12 849 25.07 13.6 56.4 33 -2.2 28
11:10 1020 30.12 849 25.07 12.9 55.3 38 -1 30.3
11:15 1020 30.12 849 25.07 12.1 53.7 41 -0.7 30.7
11:20 1020 30.12 849 25.07 12.7 54.8 36 -1.9 28.7
11:25 1020 30.12 849 25.07 12.9 55.2 37 -1.3 29.7
11:30 1020 30.12 849 25.07 12.5 54.4 39 -1.1 30
11:35 1020 30.12 849 25.07 12.6 54.8 37 -1.6 29
11:40 1020 30.12 849 25.07 13.1 55.5 35 -2.1 28.3
11:45 1020 30.12 849 25.07 13.3 55.9 35 -1.6 29.1
11:50 1020 30.12 849 25.07 13.1 55.6 34 -2.2 28
11:55 1020 30.12 849 25.07 13.9 57.1 32 -2.2 28
12:00 1020 30.12 849 25.07 14.4 57.8 34 -1.3 29.7
12:05 1020 30.12 849 25.07 13.6 56.5 35 -1.6 29.1
12:10 1020 30.12 849 25.07 13 55.4 36 -1.6 29.1
12:15 1020 30.12 849 25.07 13.7 56.6 32 -2.7 27.1
12:20 1020 30.12 849 25.07 13.8 56.9 34 -1.6 29.2
12:25 1020 30.12 849 25.07 13.4 56 34 -1.9 28.5
12:30 1020 30.12 849 25.07 14.2 57.5 32 -2 28.4
12:35 1020 30.12 849 25.07 14.8 58.6 31 -2.1 28.2
12:40 1020 30.12 849 25.07 14.4 57.9 34 -1.4 29.5
12:45 1020 30.12 849 25.07 14.1 57.3 32 -2.2 28.1
12:50 1020 30.12 849 25.07 14 57.1 34 -1.4 29.4
12:55 1020 30.12 849 25.07 14.1 57.4 34 -1.6 29.1
13:00 1020 30.12 849 25.07 14.9 58.8 31 -1.8 28.7
13:05 1019 30.09 849 25.07 15.1 59.3 32 -1.4 29.4
13:10 1019 30.09 849 25.07 15.1 59.2 33 -1.1 30.1
13:15 1019 30.09 849 25.07 14.9 58.7 31 -1.8 28.7
13:20 1020 30.12 849 25.07 15.3 59.5 29 -2.4 27.7
13:25 1020 30.12 849 25.07 15.6 60 30 -1.6 29.1
13:30 1019 30.09 849 25.07 14.8 58.7 32 -1.8 28.7
13:35 1020 30.12 849 25.07 13.8 56.9 33 -2.1 28.3
13:40 1020 30.12 849 25.07 13.2 55.7 37 -1.3 29.7
13:45 1020 30.12 849 25.07 12.8 55 41 0.1 32.2
13:50 1020 30.12 849 25.07 13.3 55.9 39 -0.3 31.5
13:55 1020 30.12 849 25.07 13.1 55.6 37 -1.2 29.8
14:00 1020 30.12 849 25.07 14 57.3 35 -1.1 29.9
14:05 1020 30.12 849 25.07 14.4 57.9 33 -1.8 28.8
14:10 1020 30.12 849 25.07 15.3 59.6 30 -2 28.4
14:15 1020 30.12 849 25.07 14.6 58.3 33 -1.4 29.4
14:20 1020 30.12 849 25.07 15.6 60 32 -0.9 30.3
14:25 1020 30.12 849 25.07 15.6 60 30 -1.9 28.5
14:30 1020 30.12 849 25.07 15.8 60.4 30 -1.6 29.1
14:35 1020 30.12 849 25.07 15 58.9 31 -1.8 28.8
14:40 1020 30.12 849 25.07 14.4 57.9 35 -1 30.3
14:45 1020 30.12 849 25.07 12.6 54.7 44 0.7 33.3
14:50 1020 30.12 849 25.07 11.1 51.9 47 0.1 32.2
14:55 1020 30.12 849 25.07 10.8 51.4 46 -0.4 31.3
15:00 1020 30.12 849 25.07 10.9 51.5 46 -0.2 31.7
15:05 1020 30.12 850 25.1 10.7 51.3 46 -0.3 31.4
15:10 1021 30.15 850 25.1 10.9 51.5 44 -1 30.2
15:15 1021 30.15 850 25.1 10.6 51.2 45 -0.9 30.5
15:20 1021 30.15 850 25.1 10.5 50.8 46 -0.6 30.9
15:25 1021 30.15 850 25.1 10.5 50.8 46 -0.7 30.8
15:30 1021 30.15 850 25.1 10.6 51 45 -0.9 30.4
15:35 1021 30.15 850 25.1 10.5 51 45 -1 30.2
15:40 1021 30.15 850 25.1 10.6 51 46 -0.6 30.9
15:45 1021 30.15 851 25.13 10.4 50.7 48 -0.1 31.8
15:50 1021 30.15 851 25.13 10.3 50.5 49 -0 32
15:55 1021 30.15 851 25.13 10 50.1 48 -0.3 31.4
16:00 1022 30.18 851 25.13 10 49.9 49 -0.1 31.8
16:05 1022 30.18 851 25.13 10.1 50.1 49 -0 31.9
16:10 1022 30.18 851 25.13 10.3 50.5 49 -0 31.9
16:15 1022 30.18 851 25.13 10.6 51 49 0.3 32.6
16:20 1022 30.18 851 25.13 9.9 49.9 51 0.3 32.5
16:25 1022 30.18 851 25.13 9.1 48.4 56 0.8 33.5
16:30 1022 30.18 851 25.13 9.8 49.6 47 -1.1 30.1
16:35 1022 30.18 851 25.13 10 50 48 -0.5 31.1
16:40 1022 30.18 851 25.13 10.4 50.6 47 -0.4 31.3
16:45 1022 30.18 851 25.13 10.4 50.8 46 -0.5 31.1
16:50 1022 30.18 851 25.13 10.4 50.7 48 0 32
16:55 1022 30.18 852 25.16 9.8 49.6 55 1.3 34.3
17:00 1022 30.18 852 25.16 9 48.1 62 2.2 35.9
17:05 1022 30.18 852 25.16 8.4 47 66 2.4 36.4
17:10 1023 30.21 852 25.16 8.6 47.4 68 2.9 37.3
17:15 1023 30.21 852 25.16 8.1 46.6 70 3.1 37.5
17:20 1023 30.21 852 25.16 8 46.5 69 2.8 37.1
17:25 1023 30.21 852 25.16 7.7 45.8 68 2.1 35.9
17:30 1023 30.21 852 25.16 7.4 45.4 71 2.6 36.7
17:35 1023 30.21 852 25.16 7.1 44.8 68 1.5 34.8
17:40 1023 30.21 852 25.16 7.2 45 71 2.3 36.2
17:45 1023 30.21 852 25.16 7.4 45.3 67 1.7 35.1
17:50 1023 30.21 852 25.16 7.8 46.1 65 1.8 35.2
17:55 1023 30.21 852 25.16 8.1 46.6 66 2.2 36
18:00 1023 30.21 852 25.16 8.2 46.7 65 2.1 35.7
18:05 1023 30.21 852 25.16 8.4 47 67 2.7 36.8
18:10 1023 30.21 852 25.16 8 46.4 71 3.2 37.7
18:15 1023 30.21 852 25.16 7.7 45.9 71 2.7 36.9
18:20 1023 30.21 852 25.16 7.6 45.7 67 1.8 35.3
18:25 1023 30.21 852 25.16 7.6 45.7 70 2.6 36.6
18:30 1023 30.21 852 25.16 7.8 46 67 2.1 35.9
18:35 1023 30.21 852 25.16 7.8 46.1 69 2.4 36.4
18:40 1023 30.21 852 25.16 8 46.5 66 2.1 35.8
18:45 1023 30.21 852 25.16 8.1 46.6 63 1.6 34.9
18:50 1023 30.21 852 25.16 7.9 46.3 61 0.9 33.7
18:55 1023 30.21 852 25.16 8.2 46.7 59 0.6 33
19:00 1023 30.21 852 25.16 8.6 47.4 57 0.5 33
19:05 1023 30.21 852 25.16 8.8 47.8 56 0.6 33.1
19:10 1023 30.21 852 25.16 8.7 47.7 58 1 33.8
19:15 1023 30.21 852 25.16 8.7 47.6 56 0.5 32.8
19:20 1023 30.21 852 25.16 8.6 47.5 56 0.4 32.7
19:25 1023 30.21 852 25.16 8.6 47.5 56 0.3 32.6
19:30 1023 30.21 852 25.16 8.7 47.7 54 0.1 32.1
19:35 1023 30.21 852 25.16 8.6 47.6 54 0 32
19:40 1023 30.21 852 25.16 8.8 47.8 55 0.2 32.3
19:45 1023 30.21 852 25.16 9.4 48.9 52 -0 31.9
19:50 1023 30.21 852 25.16 9.2 48.5 53 0.1 32.2
19:55 1023 30.21 852 25.16 9.3 48.8 52 0.1 32.2
20:00 1023 30.21 852 25.16 9.2 48.6 53 0.2 32.3
20:05 1023 30.21 852 25.16 9 48.1 53 -0 31.9
20:10 1023 30.21 852 25.16 8.9 48 53 -0.2 31.7
20:15 1023 30.21 852 25.16 8.9 48 55 0.3 32.6
20:20 1023 30.21 852 25.16 8.9 48 54 0.1 32.1
20:25 1023 30.21 852 25.16 8.9 48 54 0.1 32.2
20:30 1023 30.21 852 25.16 8.8 47.9 56 0.5 32.8
20:35 1023 30.21 852 25.16 8.9 48 56 0.6 33.1
20:40 1023 30.21 852 25.16 8.8 47.8 57 0.8 33.4
20:45 1023 30.21 853 25.19 8.6 47.4 59 1.1 34
20:50 1023 30.21 853 25.19 8.2 46.7 61 1.2 34.1
20:55 1023 30.21 853 25.19 8 46.4 62 1.1 34
21:00 1023 30.21 853 25.19 7.8 46 62 1 33.9
21:05 1023 30.21 853 25.19 7.6 45.6 62 0.9 33.6
21:10 1023 30.21 853 25.19 7.5 45.4 63 1 33.8
21:15 1023 30.21 853 25.19 7.4 45.4 64 1.1 33.9
21:20 1024 30.24 853 25.19 7.4 45.3 66 1.5 34.7
21:25 1024 30.24 853 25.19 6.9 44.5 68 1.4 34.5
21:30 1024 30.24 853 25.19 6.6 44 68 1.1 34
21:35 1024 30.24 853 25.19 6.5 43.7 69 1.3 34.4
21:40 1024 30.24 853 25.19 6.4 43.5 69 1.2 34.2
21:45 1024 30.24 853 25.19 6.2 43.1 71 1.4 34.4
21:50 1024 30.24 853 25.19 5.8 42.4 73 1.4 34.4
21:55 1024 30.24 854 25.22 5.6 42.1 74 1.3 34.4
22:00 1024 30.24 854 25.22 5.5 41.8 75 1.3 34.4
22:05 1025 30.27 854 25.22 5.3 41.5 75 1.3 34.3
22:10 1025 30.27 854 25.22 5.2 41.4 75 1.2 34.1
22:15 1025 30.27 854 25.22 5.5 41.8 71 0.7 33.2
22:20 1025 30.27 854 25.22 5.8 42.4 71 0.9 33.6
22:25 1025 30.27 854 25.22 5.7 42.2 73 1.1 34
22:30 1025 30.27 854 25.22 5.4 41.8 74 1.3 34.3
22:35 1025 30.27 854 25.22 5.2 41.3 76 1.3 34.4
22:40 1025 30.27 854 25.22 5.1 41.1 75 1.1 34
22:45 1025 30.27 854 25.22 5.2 41.3 74 0.9 33.7
22:50 1025 30.27 854 25.22 5.3 41.5 73 0.8 33.4
22:55 1025 30.27 854 25.22 5.4 41.6 72 0.7 33.3
23:00 1025 30.27 854 25.22 5.4 41.7 72 0.8 33.4
23:05 1025 30.27 854 25.22 5.5 41.9 71 0.7 33.2
23:10 1025 30.27 854 25.22 5.3 41.6 72 0.7 33.2
23:15 1025 30.27 854 25.22 5.1 41.2 73 0.8 33.4
23:20 1025 30.27 854 25.22 5 40.9 75 0.8 33.5
23:25 1025 30.27 854 25.22 4.7 40.5 76 0.8 33.4
23:30 1025 30.27 854 25.22 4.4 40 77 0.8 33.4
23:35 1025 30.27 855 25.25 4.3 39.7 77 0.7 33.2
23:40 1025 30.27 855 25.25 4.3 39.8 77 0.7 33.3
23:45 1025 30.27 855 25.25 4.4 39.8 78 0.9 33.6
23:50 1025 30.27 855 25.25 4.2 39.6 79 0.9 33.6
23:55 1025 30.27 855 25.25 4.2 39.5 80 1 33.7
24:00 1025 30.27 855 25.25 4.1 39.4 80 0.9 33.6